JLY1545 SBDN-SBCY
Flight info
| Callsign | JLY1545 |
|---|---|
| Flight time | 1h 26m |
| Altitude | 38000 |
| Route | ROKOR UM415 FIGOS UZ63 ANGAS |
| Aircraft | A20N/M-SDE2E3FGHIRWXY/LB1 |
Departure
| Time | 2026-04-25 16:54 |
|---|---|
| Airport | Presidente Prudente Airport (SBDN) |
Arrival
| Time | 2026-04-25 18:20 |
|---|---|
| Airport | Várzea Grande–Marechal Rondon International Airport (SBCY) |
| Time | Latitude | Longitude | Altitude | Speed | Heading |
|---|---|---|---|---|---|
| 2026-04-25 16:34 | -22.17786 | -51.41752 | 1516 ft | 0 kts | 189° |
| 2026-04-25 16:44 | -22.17773 | -51.41750 | 1473 ft | 4 kts | 198° |
| 2026-04-25 16:44 | -22.17752 | -51.41736 | 1473 ft | 4 kts | 245° |
| 2026-04-25 16:44 | -22.17748 | -51.41721 | 1473 ft | 1 kts | 278° |
| 2026-04-25 16:47 | -22.17746 | -51.41734 | 1473 ft | 5 kts | 278° |
| 2026-04-25 16:47 | -22.17738 | -51.41789 | 1478 ft | 10 kts | 279° |
| 2026-04-25 16:47 | -22.17726 | -51.41883 | 1483 ft | 15 kts | 276° |
| 2026-04-25 16:48 | -22.17719 | -51.42011 | 1489 ft | 19 kts | 277° |
| 2026-04-25 16:48 | -22.17697 | -51.42167 | 1489 ft | 23 kts | 277° |
| 2026-04-25 16:48 | -22.17671 | -51.42350 | 1479 ft | 28 kts | 278° |
| 2026-04-25 16:48 | -22.17640 | -51.42577 | 1474 ft | 33 kts | 277° |
| 2026-04-25 16:49 | -22.17604 | -51.42844 | 1461 ft | 38 kts | 278° |
| 2026-04-25 16:49 | -22.17570 | -51.43091 | 1450 ft | 32 kts | 278° |
| 2026-04-25 16:49 | -22.17536 | -51.43316 | 1436 ft | 28 kts | 279° |
| 2026-04-25 16:49 | -22.17471 | -51.43423 | 1429 ft | 13 kts | 345° |
| 2026-04-25 16:50 | -22.17453 | -51.43430 | 1428 ft | 0 kts | 339° |
| 2026-04-25 16:50 | -22.17439 | -51.43436 | 1428 ft | 6 kts | 338° |
| 2026-04-25 16:50 | -22.17377 | -51.43452 | 1426 ft | 10 kts | 20° |
| 2026-04-25 16:51 | -22.17370 | -51.43404 | 1429 ft | 7 kts | 102° |
| 2026-04-25 16:51 | -22.17379 | -51.43348 | 1433 ft | 9 kts | 99° |
| 2026-04-25 16:51 | -22.17408 | -51.43152 | 1443 ft | 48 kts | 99° |
| 2026-04-25 16:51 | -22.17443 | -51.42893 | 1458 ft | 53 kts | 99° |
| 2026-04-25 16:52 | -22.17512 | -51.42395 | 1482 ft | 44 kts | 98° |
| 2026-04-25 16:52 | -22.17582 | -51.42222 | 1489 ft | 19 kts | 137° |
| 2026-04-25 16:52 | -22.17691 | -51.42115 | 1485 ft | 23 kts | 128° |
| 2026-04-25 16:52 | -22.17725 | -51.41936 | 1478 ft | 27 kts | 93° |
| 2026-04-25 16:53 | -22.17762 | -51.41536 | 1477 ft | 25 kts | 69° |
| 2026-04-25 16:53 | -22.17704 | -51.41481 | 1478 ft | 11 kts | 11° |
| 2026-04-25 16:53 | -22.17637 | -51.41512 | 1488 ft | 13 kts | 285° |
| 2026-04-25 16:54 | -22.17589 | -51.41823 | 1479 ft | 95 kts | 278° |
| 2026-04-25 16:54 | -22.17462 | -51.42865 | 1637 ft | 172 kts | 278° |
| 2026-04-25 16:54 | -22.17273 | -51.44218 | 2410 ft | 192 kts | 282° |
| 2026-04-25 16:54 | -22.16999 | -51.45676 | 3445 ft | 198 kts | 282° |
| 2026-04-25 16:55 | -22.16769 | -51.47175 | 4317 ft | 209 kts | 281° |
| 2026-04-25 16:55 | -22.16550 | -51.48828 | 5113 ft | 235 kts | 279° |
| 2026-04-25 16:55 | -22.16320 | -51.50662 | 6012 ft | 258 kts | 279° |
| 2026-04-25 16:55 | -22.15956 | -51.52624 | 7006 ft | 273 kts | 288° |
| 2026-04-25 16:56 | -22.15286 | -51.54543 | 8286 ft | 275 kts | 292° |
| 2026-04-25 16:56 | -22.14555 | -51.56474 | 9590 ft | 281 kts | 292° |
| 2026-04-25 16:56 | -22.13814 | -51.58457 | 10624 ft | 293 kts | 291° |
| 2026-04-25 16:56 | -22.13022 | -51.60589 | 11221 ft | 319 kts | 291° |
| 2026-04-25 16:57 | -22.12169 | -51.62895 | 11791 ft | 342 kts | 291° |
| 2026-04-25 16:57 | -22.11868 | -51.63703 | 12090 ft | 345 kts | 291° |
| 2026-04-25 16:57 | -22.10354 | -51.67761 | 13746 ft | 357 kts | 291° |
| 2026-04-25 16:57 | -22.09419 | -51.70258 | 14656 ft | 361 kts | 291° |
| 2026-04-25 16:58 | -22.08478 | -51.72778 | 15644 ft | 364 kts | 291° |
| 2026-04-25 16:58 | -22.07525 | -51.75331 | 16516 ft | 369 kts | 292° |
| 2026-04-25 16:58 | -22.06560 | -51.77913 | 17407 ft | 374 kts | 292° |
| 2026-04-25 16:58 | -22.05579 | -51.80532 | 18256 ft | 380 kts | 292° |
| 2026-04-25 16:59 | -22.04585 | -51.83186 | 19006 ft | 383 kts | 292° |
| 2026-04-25 16:59 | -22.03581 | -51.85862 | 19774 ft | 387 kts | 292° |
| 2026-04-25 16:59 | -22.02569 | -51.88562 | 20523 ft | 391 kts | 292° |
| 2026-04-25 16:59 | -22.01544 | -51.91293 | 21235 ft | 395 kts | 292° |
| 2026-04-25 17:00 | -22.00507 | -51.94056 | 21965 ft | 399 kts | 291° |
| 2026-04-25 17:00 | -21.99461 | -51.96841 | 22688 ft | 403 kts | 291° |
| 2026-04-25 17:00 | -21.98404 | -51.99657 | 23371 ft | 408 kts | 291° |
| 2026-04-25 17:00 | -21.97349 | -52.02463 | 23966 ft | 411 kts | 291° |
| 2026-04-25 17:01 | -21.96257 | -52.05365 | 24594 ft | 414 kts | 291° |
| 2026-04-25 17:01 | -21.95188 | -52.08206 | 25177 ft | 416 kts | 291° |
| 2026-04-25 17:01 | -21.94094 | -52.11109 | 25738 ft | 420 kts | 291° |
| 2026-04-25 17:01 | -21.92993 | -52.14030 | 26302 ft | 423 kts | 291° |
| 2026-04-25 17:02 | -21.91883 | -52.16974 | 26843 ft | 426 kts | 291° |
| 2026-04-25 17:02 | -21.90763 | -52.19942 | 27378 ft | 429 kts | 291° |
| 2026-04-25 17:02 | -21.89636 | -52.22928 | 27912 ft | 432 kts | 291° |
| 2026-04-25 17:02 | -21.88498 | -52.25938 | 28413 ft | 435 kts | 291° |
| 2026-04-25 17:03 | -21.87362 | -52.28973 | 28905 ft | 438 kts | 290° |
| 2026-04-25 17:03 | -21.86277 | -52.32047 | 29397 ft | 441 kts | 289° |
| 2026-04-25 17:03 | -21.85206 | -52.35156 | 29893 ft | 444 kts | 289° |
| 2026-04-25 17:03 | -21.84129 | -52.38280 | 30314 ft | 447 kts | 289° |
| 2026-04-25 17:04 | -21.83038 | -52.41426 | 30749 ft | 450 kts | 289° |
| 2026-04-25 17:04 | -21.81932 | -52.44595 | 31194 ft | 453 kts | 289° |
| 2026-04-25 17:04 | -21.80822 | -52.47765 | 31753 ft | 453 kts | 289° |
| 2026-04-25 17:04 | -21.79710 | -52.50932 | 32337 ft | 452 kts | 289° |
| 2026-04-25 17:05 | -21.78600 | -52.54091 | 32937 ft | 451 kts | 289° |
| 2026-04-25 17:05 | -21.76388 | -52.60380 | 34071 ft | 449 kts | 289° |
| 2026-04-25 17:05 | -21.75284 | -52.63513 | 34625 ft | 446 kts | 289° |
| 2026-04-25 17:06 | -21.74188 | -52.66624 | 35197 ft | 443 kts | 289° |
| 2026-04-25 17:06 | -21.73100 | -52.69712 | 35725 ft | 441 kts | 289° |
| 2026-04-25 17:06 | -21.72015 | -52.72787 | 36249 ft | 439 kts | 289° |
| 2026-04-25 17:06 | -21.70934 | -52.75850 | 36797 ft | 437 kts | 289° |
| 2026-04-25 17:07 | -21.69859 | -52.78895 | 37316 ft | 434 kts | 289° |
| 2026-04-25 17:07 | -21.68788 | -52.81922 | 37776 ft | 432 kts | 289° |
| 2026-04-25 17:07 | -21.67723 | -52.84935 | 37923 ft | 430 kts | 289° |
| 2026-04-25 17:07 | -21.66661 | -52.87939 | 37934 ft | 429 kts | 289° |
| 2026-04-25 17:08 | -21.64554 | -52.93890 | 37937 ft | 429 kts | 289° |
| 2026-04-25 17:08 | -21.62430 | -52.99878 | 37939 ft | 429 kts | 289° |
| 2026-04-25 17:09 | -21.60303 | -53.05866 | 37940 ft | 429 kts | 289° |
| 2026-04-25 17:09 | -21.58174 | -53.11856 | 37939 ft | 429 kts | 289° |
| 2026-04-25 17:10 | -21.56041 | -53.17845 | 37935 ft | 429 kts | 289° |
| 2026-04-25 17:10 | -21.53907 | -53.23830 | 37935 ft | 429 kts | 289° |
| 2026-04-25 17:11 | -21.51772 | -53.29811 | 37938 ft | 429 kts | 289° |
| 2026-04-25 17:11 | -21.49632 | -53.35798 | 37941 ft | 429 kts | 289° |
| 2026-04-25 17:12 | -21.47487 | -53.41777 | 37939 ft | 429 kts | 290° |
| 2026-04-25 17:12 | -21.44789 | -53.47504 | 37936 ft | 432 kts | 300° |
| 2026-04-25 17:13 | -21.42527 | -53.51019 | 37940 ft | 433 kts | 306° |
| 2026-04-25 17:13 | -21.37269 | -53.57541 | 37935 ft | 434 kts | 309° |
| 2026-04-25 17:14 | -21.33288 | -53.62415 | 37941 ft | 434 kts | 309° |
| 2026-04-25 17:14 | -21.29300 | -53.67290 | 37952 ft | 435 kts | 309° |
| 2026-04-25 17:15 | -21.25310 | -53.72161 | 37945 ft | 435 kts | 309° |
| 2026-04-25 17:15 | -21.21318 | -53.77030 | 37947 ft | 435 kts | 309° |
| 2026-04-25 17:16 | -21.17324 | -53.81898 | 37940 ft | 435 kts | 309° |
| 2026-04-25 17:16 | -21.13326 | -53.86764 | 37943 ft | 435 kts | 309° |
| 2026-04-25 17:17 | -21.09322 | -53.91635 | 37943 ft | 436 kts | 309° |
| 2026-04-25 17:17 | -21.05966 | -53.95713 | 37949 ft | 436 kts | 309° |
| 2026-04-25 17:18 | -21.01956 | -54.00584 | 37951 ft | 436 kts | 309° |
| 2026-04-25 17:18 | -20.97969 | -54.05421 | 37951 ft | 436 kts | 309° |
| 2026-04-25 17:19 | -20.93955 | -54.10287 | 37947 ft | 436 kts | 309° |
| 2026-04-25 17:19 | -20.89947 | -54.15161 | 37951 ft | 436 kts | 308° |
| 2026-04-25 17:20 | -20.86090 | -54.20169 | 37956 ft | 436 kts | 307° |
| 2026-04-25 17:20 | -20.82248 | -54.25194 | 37959 ft | 437 kts | 307° |
| 2026-04-25 17:21 | -20.78384 | -54.30202 | 37956 ft | 437 kts | 308° |
| 2026-04-25 17:21 | -20.74512 | -54.35203 | 37959 ft | 437 kts | 308° |
| 2026-04-25 17:22 | -20.71290 | -54.39361 | 37958 ft | 437 kts | 308° |
| 2026-04-25 17:22 | -20.66810 | -54.45137 | 37976 ft | 437 kts | 308° |
| 2026-04-25 17:23 | -20.62929 | -54.50136 | 37992 ft | 437 kts | 308° |
| 2026-04-25 17:23 | -20.59045 | -54.55135 | 38006 ft | 438 kts | 308° |
| 2026-04-25 17:24 | -20.55155 | -54.60137 | 38017 ft | 438 kts | 308° |
| 2026-04-25 17:24 | -20.51194 | -54.65071 | 38021 ft | 439 kts | 314° |
| 2026-04-25 17:25 | -20.46248 | -54.68904 | 38022 ft | 443 kts | 331° |
| 2026-04-25 17:25 | -20.40410 | -54.71061 | 38017 ft | 447 kts | 343° |
| 2026-04-25 17:26 | -20.34382 | -54.72697 | 38003 ft | 447 kts | 343° |
| 2026-04-25 17:26 | -20.28353 | -54.74347 | 37995 ft | 447 kts | 343° |
| 2026-04-25 17:27 | -20.22320 | -54.75996 | 37975 ft | 448 kts | 343° |
| 2026-04-25 17:27 | -20.17300 | -54.77366 | 37961 ft | 448 kts | 343° |
| 2026-04-25 17:28 | -20.10261 | -54.79402 | 37947 ft | 448 kts | 342° |
| 2026-04-25 17:28 | -20.04300 | -54.81188 | 37944 ft | 449 kts | 342° |
| 2026-04-25 17:29 | -19.98283 | -54.82973 | 37946 ft | 449 kts | 343° |
| 2026-04-25 17:29 | -19.92263 | -54.84750 | 37947 ft | 449 kts | 343° |
| 2026-04-25 17:30 | -19.86237 | -54.86526 | 37947 ft | 449 kts | 343° |
| 2026-04-25 17:30 | -19.80211 | -54.88301 | 37948 ft | 450 kts | 343° |
| 2026-04-25 17:31 | -19.74182 | -54.90075 | 37949 ft | 449 kts | 343° |
| 2026-04-25 17:31 | -19.68156 | -54.91847 | 37951 ft | 449 kts | 343° |
| 2026-04-25 17:32 | -19.62135 | -54.93617 | 37947 ft | 449 kts | 343° |
| 2026-04-25 17:32 | -19.56110 | -54.95386 | 37944 ft | 449 kts | 343° |
| 2026-04-25 17:33 | -19.50088 | -54.97154 | 37944 ft | 449 kts | 343° |
| 2026-04-25 17:33 | -19.44072 | -54.98918 | 37942 ft | 449 kts | 343° |
| 2026-04-25 17:34 | -19.38053 | -55.00681 | 37942 ft | 449 kts | 343° |
| 2026-04-25 17:34 | -19.32036 | -55.02445 | 37941 ft | 448 kts | 343° |
| 2026-04-25 17:35 | -19.26039 | -55.04259 | 37941 ft | 448 kts | 343° |
| 2026-04-25 17:35 | -19.20047 | -55.06079 | 37937 ft | 448 kts | 343° |
| 2026-04-25 17:36 | -19.14046 | -55.07894 | 37594 ft | 449 kts | 343° |
| 2026-04-25 17:36 | -19.11038 | -55.08802 | 37037 ft | 450 kts | 343° |
| 2026-04-25 17:36 | -19.08025 | -55.09711 | 36301 ft | 451 kts | 343° |
| 2026-04-25 17:37 | -19.05014 | -55.10619 | 35576 ft | 450 kts | 344° |
| 2026-04-25 17:37 | -19.02007 | -55.11526 | 34869 ft | 448 kts | 344° |
| 2026-04-25 17:37 | -18.98987 | -55.12314 | 34185 ft | 447 kts | 350° |
| 2026-04-25 17:37 | -18.95923 | -55.12928 | 33454 ft | 450 kts | 348° |
| 2026-04-25 17:38 | -18.92847 | -55.13608 | 32777 ft | 454 kts | 348° |
| 2026-04-25 17:38 | -18.90797 | -55.14088 | 32331 ft | 457 kts | 347° |
| 2026-04-25 17:38 | -18.86664 | -55.15178 | 31457 ft | 458 kts | 345° |
| 2026-04-25 17:38 | -18.83590 | -55.16070 | 30820 ft | 459 kts | 344° |
| 2026-04-25 17:39 | -18.80524 | -55.16995 | 30204 ft | 456 kts | 344° |
| 2026-04-25 17:39 | -18.77499 | -55.17920 | 29495 ft | 449 kts | 344° |
| 2026-04-25 17:39 | -18.74513 | -55.18835 | 28716 ft | 445 kts | 344° |
| 2026-04-25 17:39 | -18.71554 | -55.19741 | 27967 ft | 440 kts | 344° |
| 2026-04-25 17:40 | -18.68626 | -55.20636 | 27225 ft | 436 kts | 344° |
| 2026-04-25 17:40 | -18.65726 | -55.21522 | 26502 ft | 432 kts | 344° |
| 2026-04-25 17:40 | -18.62852 | -55.22399 | 25799 ft | 428 kts | 344° |
| 2026-04-25 17:40 | -18.60002 | -55.23268 | 25121 ft | 424 kts | 343° |
| 2026-04-25 17:41 | -18.57231 | -55.24112 | 24461 ft | 420 kts | 343° |
| 2026-04-25 17:41 | -18.54423 | -55.24967 | 23802 ft | 417 kts | 343° |
| 2026-04-25 17:41 | -18.51648 | -55.25812 | 23118 ft | 413 kts | 343° |
| 2026-04-25 17:41 | -18.48879 | -55.26656 | 22482 ft | 403 kts | 343° |
| 2026-04-25 17:42 | -18.46273 | -55.27450 | 21891 ft | 387 kts | 343° |
| 2026-04-25 17:42 | -18.43732 | -55.28223 | 21308 ft | 374 kts | 343° |
| 2026-04-25 17:42 | -18.41243 | -55.28981 | 20728 ft | 362 kts | 343° |
| 2026-04-25 17:42 | -18.38893 | -55.29695 | 20175 ft | 352 kts | 343° |
| 2026-04-25 17:43 | -18.36578 | -55.30398 | 19722 ft | 340 kts | 343° |
| 2026-04-25 17:43 | -18.34315 | -55.31086 | 19492 ft | 340 kts | 344° |
| 2026-04-25 17:43 | -18.32036 | -55.31778 | 19257 ft | 341 kts | 344° |
| 2026-04-25 17:43 | -18.29765 | -55.32467 | 19043 ft | 339 kts | 344° |
| 2026-04-25 17:44 | -18.27507 | -55.33152 | 18827 ft | 337 kts | 344° |
| 2026-04-25 17:44 | -18.25260 | -55.33835 | 18597 ft | 336 kts | 344° |
| 2026-04-25 17:44 | -18.23020 | -55.34515 | 18380 ft | 335 kts | 344° |
| 2026-04-25 17:44 | -18.20786 | -55.35193 | 18164 ft | 334 kts | 344° |
| 2026-04-25 17:45 | -18.18569 | -55.35866 | 17906 ft | 332 kts | 344° |
| 2026-04-25 17:45 | -18.17823 | -55.36092 | 17817 ft | 332 kts | 344° |
| 2026-04-25 17:45 | -18.14139 | -55.37208 | 17400 ft | 331 kts | 344° |
| 2026-04-25 17:45 | -18.11921 | -55.37880 | 17150 ft | 330 kts | 344° |
| 2026-04-25 17:46 | -18.09723 | -55.38546 | 16895 ft | 329 kts | 344° |
| 2026-04-25 17:46 | -18.07521 | -55.39213 | 16420 ft | 330 kts | 344° |
| 2026-04-25 17:46 | -18.05314 | -55.39881 | 15873 ft | 331 kts | 344° |
| 2026-04-25 17:46 | -18.03099 | -55.40552 | 15308 ft | 332 kts | 344° |
| 2026-04-25 17:47 | -18.00875 | -55.41225 | 14723 ft | 333 kts | 344° |
| 2026-04-25 17:47 | -17.98652 | -55.41898 | 14040 ft | 332 kts | 345° |
| 2026-04-25 17:47 | -17.96441 | -55.42568 | 13311 ft | 330 kts | 345° |
| 2026-04-25 17:47 | -17.94235 | -55.43235 | 12560 ft | 329 kts | 345° |
| 2026-04-25 17:48 | -17.89888 | -55.44550 | 11275 ft | 319 kts | 345° |
| 2026-04-25 17:48 | -17.87781 | -55.45187 | 10797 ft | 310 kts | 345° |
| 2026-04-25 17:48 | -17.85739 | -55.45803 | 10377 ft | 300 kts | 345° |
| 2026-04-25 17:49 | -17.83793 | -55.46391 | 10030 ft | 290 kts | 345° |
| 2026-04-25 17:49 | -17.81862 | -55.46975 | 9795 ft | 292 kts | 345° |
| 2026-04-25 17:49 | -17.79916 | -55.47562 | 9630 ft | 290 kts | 345° |
| 2026-04-25 17:49 | -17.77978 | -55.48147 | 9499 ft | 291 kts | 345° |
| 2026-04-25 17:50 | -17.76033 | -55.48735 | 9384 ft | 290 kts | 345° |
| 2026-04-25 17:50 | -17.74104 | -55.49319 | 9259 ft | 288 kts | 345° |
| 2026-04-25 17:50 | -17.72178 | -55.49898 | 9137 ft | 287 kts | 345° |
| 2026-04-25 17:50 | -17.70256 | -55.50475 | 9098 ft | 287 kts | 345° |
| 2026-04-25 17:51 | -17.68334 | -55.51053 | 9099 ft | 288 kts | 345° |
| 2026-04-25 17:51 | -17.66415 | -55.51632 | 9223 ft | 288 kts | 345° |
| 2026-04-25 17:51 | -17.64481 | -55.52217 | 9390 ft | 290 kts | 345° |
| 2026-04-25 17:51 | -17.62541 | -55.52801 | 9407 ft | 289 kts | 345° |
| 2026-04-25 17:52 | -17.60608 | -55.53383 | 9406 ft | 290 kts | 345° |
| 2026-04-25 17:52 | -17.59953 | -55.53580 | 9409 ft | 290 kts | 345° |
| 2026-04-25 17:52 | -17.56740 | -55.54546 | 9406 ft | 290 kts | 345° |
| 2026-04-25 17:52 | -17.54801 | -55.55131 | 9404 ft | 290 kts | 345° |
| 2026-04-25 17:53 | -17.52866 | -55.55714 | 9400 ft | 290 kts | 345° |
| 2026-04-25 17:53 | -17.50927 | -55.56298 | 9403 ft | 289 kts | 345° |
| 2026-04-25 17:53 | -17.48990 | -55.56882 | 9400 ft | 290 kts | 345° |
| 2026-04-25 17:53 | -17.47051 | -55.57466 | 9404 ft | 290 kts | 345° |
| 2026-04-25 17:54 | -17.45109 | -55.58049 | 9403 ft | 290 kts | 345° |
| 2026-04-25 17:54 | -17.43167 | -55.58633 | 9403 ft | 290 kts | 345° |
| 2026-04-25 17:54 | -17.41252 | -55.59211 | 9400 ft | 291 kts | 345° |
| 2026-04-25 17:54 | -17.39304 | -55.59796 | 9398 ft | 291 kts | 345° |
| 2026-04-25 17:55 | -17.37363 | -55.60378 | 9399 ft | 290 kts | 345° |
| 2026-04-25 17:55 | -17.35420 | -55.60961 | 9397 ft | 291 kts | 345° |
| 2026-04-25 17:55 | -17.33469 | -55.61545 | 9400 ft | 292 kts | 345° |
| 2026-04-25 17:55 | -17.31521 | -55.62130 | 9399 ft | 290 kts | 345° |
| 2026-04-25 17:56 | -17.29578 | -55.62712 | 9399 ft | 291 kts | 345° |
| 2026-04-25 17:56 | -17.27627 | -55.63298 | 9399 ft | 292 kts | 345° |
| 2026-04-25 17:56 | -17.25679 | -55.63882 | 9403 ft | 292 kts | 345° |
| 2026-04-25 17:56 | -17.23731 | -55.64467 | 9403 ft | 291 kts | 345° |
| 2026-04-25 17:57 | -17.21780 | -55.65053 | 9399 ft | 292 kts | 345° |
| 2026-04-25 17:57 | -17.19832 | -55.65637 | 9399 ft | 292 kts | 345° |
| 2026-04-25 17:57 | -17.17880 | -55.66223 | 9403 ft | 292 kts | 345° |
| 2026-04-25 17:57 | -17.17220 | -55.66420 | 9404 ft | 292 kts | 345° |
| 2026-04-25 17:58 | -17.13977 | -55.67394 | 9400 ft | 292 kts | 345° |
| 2026-04-25 17:58 | -17.12023 | -55.67979 | 9404 ft | 292 kts | 345° |
| 2026-04-25 17:58 | -17.10073 | -55.68561 | 9397 ft | 292 kts | 345° |
| 2026-04-25 17:58 | -17.08121 | -55.69147 | 9402 ft | 292 kts | 345° |
| 2026-04-25 17:59 | -17.06169 | -55.69732 | 9399 ft | 292 kts | 345° |
| 2026-04-25 17:59 | -17.04218 | -55.70317 | 9403 ft | 292 kts | 345° |
| 2026-04-25 17:59 | -17.02265 | -55.70901 | 9400 ft | 292 kts | 345° |
| 2026-04-25 17:59 | -17.00309 | -55.71487 | 9394 ft | 292 kts | 345° |
| 2026-04-25 18:00 | -16.98358 | -55.72071 | 9401 ft | 292 kts | 345° |
| 2026-04-25 18:00 | -16.96400 | -55.72656 | 9394 ft | 293 kts | 345° |
| 2026-04-25 18:00 | -16.94467 | -55.73232 | 9398 ft | 293 kts | 345° |
| 2026-04-25 18:00 | -16.92509 | -55.73817 | 9398 ft | 292 kts | 345° |
| 2026-04-25 18:01 | -16.90549 | -55.74403 | 9393 ft | 293 kts | 345° |
| 2026-04-25 18:01 | -16.88594 | -55.74987 | 9395 ft | 292 kts | 345° |
| 2026-04-25 18:01 | -16.86632 | -55.75574 | 9393 ft | 293 kts | 345° |
| 2026-04-25 18:01 | -16.84675 | -55.76160 | 9401 ft | 293 kts | 345° |
| 2026-04-25 18:02 | -16.82715 | -55.76745 | 9393 ft | 293 kts | 345° |
| 2026-04-25 18:02 | -16.80756 | -55.77330 | 9395 ft | 293 kts | 345° |
| 2026-04-25 18:02 | -16.78795 | -55.77916 | 9396 ft | 293 kts | 345° |
| 2026-04-25 18:02 | -16.76834 | -55.78501 | 9395 ft | 293 kts | 345° |
| 2026-04-25 18:03 | -16.74874 | -55.79085 | 9390 ft | 293 kts | 345° |
| 2026-04-25 18:03 | -16.72913 | -55.79670 | 9397 ft | 294 kts | 345° |
| 2026-04-25 18:03 | -16.70952 | -55.80255 | 9391 ft | 293 kts | 345° |
| 2026-04-25 18:03 | -16.68997 | -55.80837 | 9398 ft | 294 kts | 345° |
| 2026-04-25 18:04 | -16.67023 | -55.81429 | 9392 ft | 292 kts | 345° |
| 2026-04-25 18:04 | -16.65068 | -55.82012 | 9394 ft | 293 kts | 345° |
| 2026-04-25 18:04 | -16.63135 | -55.82588 | 9393 ft | 293 kts | 345° |
| 2026-04-25 18:04 | -16.61179 | -55.83169 | 9390 ft | 292 kts | 345° |
| 2026-04-25 18:05 | -16.59227 | -55.83751 | 9392 ft | 292 kts | 345° |
| 2026-04-25 18:05 | -16.57273 | -55.84333 | 9394 ft | 292 kts | 345° |
| 2026-04-25 18:05 | -16.55322 | -55.84916 | 9390 ft | 292 kts | 345° |
| 2026-04-25 18:05 | -16.53371 | -55.85497 | 9390 ft | 291 kts | 345° |
| 2026-04-25 18:06 | -16.51410 | -55.86007 | 9390 ft | 291 kts | 349° |
| 2026-04-25 18:06 | -16.49425 | -55.86419 | 9390 ft | 291 kts | 349° |
| 2026-04-25 18:06 | -16.47440 | -55.86838 | 9390 ft | 290 kts | 349° |
| 2026-04-25 18:06 | -16.45458 | -55.87258 | 9388 ft | 290 kts | 349° |
| 2026-04-25 18:07 | -16.43477 | -55.87679 | 9390 ft | 290 kts | 349° |
| 2026-04-25 18:07 | -16.42138 | -55.87963 | 9388 ft | 290 kts | 349° |
| 2026-04-25 18:07 | -16.40192 | -55.88376 | 9390 ft | 291 kts | 349° |
| 2026-04-25 18:07 | -16.38209 | -55.88797 | 9387 ft | 290 kts | 349° |
| 2026-04-25 18:08 | -16.35564 | -55.89358 | 9385 ft | 290 kts | 349° |
| 2026-04-25 18:08 | -16.34252 | -55.89635 | 9389 ft | 291 kts | 349° |
| 2026-04-25 18:08 | -16.32272 | -55.90054 | 9382 ft | 290 kts | 349° |
| 2026-04-25 18:08 | -16.30296 | -55.90471 | 9373 ft | 289 kts | 349° |
| 2026-04-25 18:09 | -16.28323 | -55.90888 | 9078 ft | 290 kts | 349° |
| 2026-04-25 18:09 | -16.26343 | -55.91307 | 8599 ft | 291 kts | 349° |
| 2026-04-25 18:09 | -16.24364 | -55.91727 | 8145 ft | 289 kts | 349° |
| 2026-04-25 18:09 | -16.23034 | -55.92008 | 7826 ft | 288 kts | 349° |
| 2026-04-25 18:10 | -16.20447 | -55.92556 | 7272 ft | 285 kts | 349° |
| 2026-04-25 18:10 | -16.18509 | -55.92966 | 6832 ft | 283 kts | 349° |
| 2026-04-25 18:10 | -16.16586 | -55.93371 | 6431 ft | 281 kts | 349° |
| 2026-04-25 18:10 | -16.14675 | -55.93775 | 6012 ft | 280 kts | 349° |
| 2026-04-25 18:11 | -16.12771 | -55.94178 | 5562 ft | 279 kts | 349° |
| 2026-04-25 18:11 | -16.10875 | -55.94577 | 5108 ft | 277 kts | 349° |
| 2026-04-25 18:11 | -16.08992 | -55.94975 | 4674 ft | 276 kts | 349° |
| 2026-04-25 18:11 | -16.07147 | -55.95366 | 4525 ft | 264 kts | 349° |
| 2026-04-25 18:12 | -16.05312 | -55.95754 | 4482 ft | 273 kts | 349° |
| 2026-04-25 18:12 | -16.03464 | -55.96143 | 4419 ft | 269 kts | 349° |
| 2026-04-25 18:12 | -16.01629 | -55.96530 | 4318 ft | 269 kts | 349° |
| 2026-04-25 18:12 | -15.99795 | -55.96917 | 4246 ft | 269 kts | 349° |
| 2026-04-25 18:13 | -15.97967 | -55.97305 | 4101 ft | 268 kts | 347° |
| 2026-04-25 18:13 | -15.96169 | -55.97826 | 3973 ft | 268 kts | 345° |
| 2026-04-25 18:13 | -15.94366 | -55.98320 | 3851 ft | 267 kts | 345° |
| 2026-04-25 18:14 | -15.90806 | -55.99418 | 3529 ft | 268 kts | 343° |
| 2026-04-25 18:14 | -15.89023 | -56.00026 | 3080 ft | 270 kts | 342° |
| 2026-04-25 18:14 | -15.87241 | -56.00656 | 2720 ft | 271 kts | 341° |
| 2026-04-25 18:14 | -15.85494 | -56.01284 | 2573 ft | 257 kts | 341° |
| 2026-04-25 18:15 | -15.83875 | -56.01882 | 2565 ft | 237 kts | 339° |
| 2026-04-25 18:15 | -15.82416 | -56.02540 | 2554 ft | 219 kts | 335° |
| 2026-04-25 18:15 | -15.81127 | -56.03211 | 2551 ft | 197 kts | 333° |
| 2026-04-25 18:15 | -15.79977 | -56.03825 | 2564 ft | 174 kts | 334° |
| 2026-04-25 18:16 | -15.78965 | -56.04371 | 2475 ft | 153 kts | 334° |
| 2026-04-25 18:16 | -15.78075 | -56.04844 | 2418 ft | 135 kts | 335° |
| 2026-04-25 18:16 | -15.76547 | -56.05660 | 2294 ft | 130 kts | 334° |
| 2026-04-25 18:17 | -15.75751 | -56.06089 | 2244 ft | 128 kts | 334° |
| 2026-04-25 18:17 | -15.74976 | -56.06501 | 2191 ft | 123 kts | 334° |
| 2026-04-25 18:17 | -15.74207 | -56.06911 | 2126 ft | 125 kts | 334° |
| 2026-04-25 18:17 | -15.73434 | -56.07323 | 2069 ft | 125 kts | 334° |
| 2026-04-25 18:18 | -15.72664 | -56.07736 | 1927 ft | 124 kts | 334° |
| 2026-04-25 18:18 | -15.71896 | -56.08146 | 1790 ft | 125 kts | 334° |
| 2026-04-25 18:18 | -15.71138 | -56.08550 | 1662 ft | 122 kts | 334° |
| 2026-04-25 18:18 | -15.70380 | -56.08956 | 1496 ft | 123 kts | 335° |
| 2026-04-25 18:19 | -15.69629 | -56.09339 | 1396 ft | 123 kts | 334° |
| 2026-04-25 18:19 | -15.68868 | -56.09747 | 1220 ft | 122 kts | 330° |
| 2026-04-25 18:19 | -15.68118 | -56.10136 | 1079 ft | 122 kts | 333° |
| 2026-04-25 18:19 | -15.67342 | -56.10557 | 950 ft | 126 kts | 325° |
| 2026-04-25 18:20 | -15.66578 | -56.10992 | 728 ft | 123 kts | 331° |
| 2026-04-25 18:20 | -15.65830 | -56.11387 | 597 ft | 120 kts | 330° |
| 2026-04-25 18:20 | -15.65291 | -56.11673 | 598 ft | 55 kts | 332° |
| 2026-04-25 18:20 | -15.65065 | -56.11808 | 597 ft | 16 kts | 294° |
| 2026-04-25 18:21 | -15.65065 | -56.11824 | 597 ft | 0 kts | 266° |
| 2026-04-25 18:21 | -15.65065 | -56.11827 | 597 ft | 3 kts | 266° |
| 2026-04-25 18:21 | -15.65081 | -56.11867 | 597 ft | 9 kts | 244° |
| 2026-04-25 18:21 | -15.65053 | -56.11925 | 596 ft | 6 kts | 326° |
| 2026-04-25 18:22 | -15.65037 | -56.11936 | 596 ft | 5 kts | 324° |
| 2026-04-25 18:22 | -15.65032 | -56.11961 | 596 ft | 6 kts | 260° |
| 2026-04-25 18:22 | -15.65043 | -56.11982 | 596 ft | 0 kts | 243° |
| 2026-04-25 18:22 | -15.65044 | -56.11984 | 596 ft | 0 kts | 243° |